createdAt,value
2022-10-02T00:04:54.285Z,11.35
2022-10-02T00:10:01.463Z,11.41
2022-10-02T00:15:13.590Z,11.52
2022-10-02T00:20:19.460Z,11.70
2022-10-02T00:25:50.639Z,11.76
2022-10-02T00:31:18.330Z,11.75
2022-10-02T00:36:46.103Z,11.58
2022-10-02T00:42:00.960Z,11.48
2022-10-02T00:47:20.044Z,11.69
2022-10-02T00:59:00.306Z,11.40
2022-10-02T01:04:08.515Z,11.13
2022-10-02T01:09:12.619Z,10.93
2022-10-02T01:14:16.533Z,10.63
2022-10-02T01:19:39.961Z,10.56
2022-10-02T01:24:53.680Z,10.37
2022-10-02T01:30:07.900Z,10.20
2022-10-02T01:35:11.386Z,10.16
2022-10-02T01:40:43.501Z,10.18
2022-10-02T01:45:57.490Z,10.13
2022-10-02T01:51:22.770Z,10.06
2022-10-02T01:56:49.834Z,10.09
2022-10-02T02:02:10.163Z,10.01
2022-10-02T02:07:16.405Z,9.95
2022-10-02T02:12:26.897Z,9.82
2022-10-02T02:17:59.744Z,9.78
2022-10-02T02:23:18.231Z,9.79
2022-10-02T02:28:23.871Z,9.76
2022-10-02T02:33:36.861Z,9.67
2022-10-02T02:38:49.554Z,9.63
2022-10-02T02:44:24.590Z,9.71
2022-10-02T02:49:31.889Z,9.62
2022-10-02T02:54:43.693Z,9.62
2022-10-02T02:59:52.030Z,9.55
2022-10-02T03:04:54.948Z,9.54
2022-10-02T03:10:09.848Z,9.50
2022-10-02T03:15:55.514Z,9.47
2022-10-02T03:21:28.388Z,9.35
2022-10-02T03:26:42.129Z,9.45
2022-10-02T03:31:46.529Z,9.51
2022-10-02T03:36:50.948Z,9.50
2022-10-02T03:41:54.685Z,9.39
2022-10-02T03:46:58.276Z,9.22
2022-10-02T03:52:01.476Z,8.92
2022-10-02T03:57:08.561Z,9.09
2022-10-02T04:02:24.350Z,9.05
2022-10-02T04:07:34.444Z,8.89
2022-10-02T04:12:42.960Z,9.04
2022-10-02T04:17:58.928Z,9.03
2022-10-02T04:23:27.103Z,8.93
2022-10-02T04:28:39.814Z,8.93
2022-10-02T04:33:42.871Z,9.09
2022-10-02T04:39:19.801Z,9.15
2022-10-02T04:45:05.662Z,8.81
2022-10-02T04:50:17.558Z,9.11
2022-10-02T04:55:51.430Z,8.97
2022-10-02T05:01:16.094Z,9.58
2022-10-02T05:06:55.083Z,9.75
2022-10-02T05:12:16.289Z,9.81
2022-10-02T05:17:42.775Z,10.16
2022-10-02T05:22:49.056Z,10.21
2022-10-02T05:28:30.621Z,10.57
2022-10-02T05:33:54.992Z,11.01
2022-10-02T05:38:58.315Z,11.30
2022-10-02T05:44:15.906Z,11.24
2022-10-02T05:49:20.752Z,11.82
2022-10-02T05:54:36.426Z,12.33
2022-10-02T06:00:17.511Z,12.61
2022-10-02T06:06:00.496Z,13.33
2022-10-02T06:11:12.075Z,17.49
2022-10-02T06:16:27.636Z,18.87
2022-10-02T06:21:40.749Z,21.18
2022-10-02T06:26:53.311Z,22.01
2022-10-02T06:32:23.350Z,22.31
2022-10-02T06:37:56.871Z,22.41
2022-10-02T06:43:13.482Z,22.21
2022-10-02T06:48:46.465Z,23.74
2022-10-02T06:54:32.822Z,23.53
2022-10-02T06:59:59.909Z,24.66
2022-10-02T07:05:27.593Z,24.77
2022-10-02T07:10:43.560Z,25.90
2022-10-02T07:16:08.729Z,25.35
2022-10-02T07:21:39.686Z,28.54
2022-10-02T07:26:59.205Z,29.63
2022-10-02T07:32:24.485Z,27.31
2022-10-02T07:38:10.518Z,27.62
2022-10-02T07:43:40.734Z,29.09
2022-10-02T07:49:08.343Z,26.83
2022-10-02T07:54:45.915Z,27.15
2022-10-02T07:59:52.054Z,28.26
2022-10-02T08:04:59.839Z,27.72
2022-10-02T08:10:10.397Z,28.25
2022-10-02T08:15:18.118Z,27.81
2022-10-02T08:20:45.434Z,28.55
2022-10-02T08:26:06.485Z,27.80
2022-10-02T08:31:12.256Z,28.43
2022-10-02T08:36:44.078Z,28.98
2022-10-02T08:41:49.938Z,29.14
2022-10-02T08:47:06.438Z,29.25
2022-10-02T08:52:29.483Z,29.97
2022-10-02T08:57:43.429Z,30.83
2022-10-02T09:03:07.877Z,29.18
2022-10-02T09:08:23.106Z,29.67
2022-10-02T09:13:45.616Z,29.94
2022-10-02T09:19:03.899Z,28.64
2022-10-02T09:24:46.799Z,28.20
2022-10-02T09:30:21.112Z,27.57
2022-10-02T09:35:39.668Z,29.20
2022-10-02T09:40:49.102Z,29.89
2022-10-02T09:46:13.518Z,30.12
2022-10-02T09:51:26.455Z,28.76
2022-10-02T09:57:07.528Z,29.20
2022-10-02T10:02:26.604Z,28.47
2022-10-02T10:08:32.919Z,27.84
2022-10-02T10:14:07.151Z,27.18
2022-10-02T10:19:47.138Z,27.56
2022-10-02T10:25:02.793Z,27.89
2022-10-02T10:30:37.721Z,27.92
2022-10-02T10:35:54.121Z,27.45
2022-10-02T10:41:06.528Z,26.95
2022-10-02T10:46:47.030Z,26.99
2022-10-02T10:51:59.989Z,26.27
2022-10-02T10:57:26.209Z,27.04
2022-10-02T11:03:08.019Z,25.68
2022-10-02T11:08:35.594Z,26.28
2022-10-02T11:13:42.340Z,25.74
2022-10-02T11:18:54.429Z,27.05
2022-10-02T11:24:10.426Z,27.27
2022-10-02T11:29:44.414Z,27.01
2022-10-02T11:35:20.199Z,27.25
2022-10-02T11:40:41.805Z,27.23
2022-10-02T11:46:07.831Z,27.30
2022-10-02T11:51:13.741Z,27.57
2022-10-02T11:56:36.515Z,26.43
2022-10-02T12:02:01.935Z,27.73
2022-10-02T12:07:32.255Z,26.14
2022-10-02T12:13:18.227Z,27.91
2022-10-02T12:19:20.352Z,27.34
2022-10-02T12:24:54.995Z,26.97
2022-10-02T12:30:17.705Z,26.56
2022-10-02T12:35:32.589Z,26.17
2022-10-02T12:40:54.864Z,26.82
2022-10-02T12:46:17.497Z,27.05
2022-10-02T12:51:35.957Z,27.45
2022-10-02T12:57:01.132Z,26.61
2022-10-02T13:02:49.068Z,26.66
2022-10-02T13:08:18.839Z,26.26
2022-10-02T13:13:40.281Z,26.34
2022-10-02T13:19:01.507Z,26.72
2022-10-02T13:24:39.318Z,26.57
2022-10-02T13:30:03.974Z,27.15
2022-10-02T13:35:28.475Z,27.43
2022-10-02T13:41:02.474Z,27.00
2022-10-02T13:46:48.758Z,26.98
2022-10-02T13:51:51.881Z,27.34
2022-10-02T13:57:16.708Z,27.56
2022-10-02T14:02:39.829Z,27.44
2022-10-02T14:08:02.030Z,27.72
2022-10-02T14:13:40.150Z,27.17
2022-10-02T14:19:22.355Z,27.04
2022-10-02T14:25:03.990Z,26.60
2022-10-02T14:30:22.276Z,26.42
2022-10-02T14:35:36.009Z,27.36
2022-10-02T14:41:02.606Z,26.90
2022-10-02T14:46:21.136Z,26.54
2022-10-02T14:52:01.544Z,26.30
2022-10-02T14:57:22.792Z,25.98
2022-10-02T15:02:48.529Z,25.63
2022-10-02T15:07:52.817Z,25.76
2022-10-02T15:13:03.554Z,25.54
2022-10-02T15:18:42.236Z,24.79
2022-10-02T15:23:51.782Z,24.90
2022-10-02T15:29:31.325Z,24.24
2022-10-02T15:35:09.691Z,23.89
2022-10-02T15:40:22.220Z,23.61
2022-10-02T15:45:37.813Z,23.35
2022-10-02T15:50:56.364Z,22.68
2022-10-02T15:56:12.052Z,22.39
2022-10-02T16:01:43.764Z,21.37
2022-10-02T16:06:53.488Z,21.17
2022-10-02T16:12:13.327Z,20.65
2022-10-02T16:17:32.275Z,20.20
2022-10-02T16:23:00.659Z,19.22
2022-10-02T16:28:10.704Z,19.02
2022-10-02T16:33:26.379Z,18.86
2022-10-02T16:38:55.000Z,18.56
2022-10-02T16:44:09.304Z,18.33
2022-10-02T16:49:34.075Z,17.97
2022-10-02T16:55:03.571Z,17.65
2022-10-02T17:00:23.241Z,17.37
2022-10-02T17:05:30.229Z,17.14
2022-10-02T17:11:06.208Z,17.08
2022-10-02T17:16:21.538Z,16.86
2022-10-02T17:21:51.483Z,16.91
2022-10-02T17:27:20.290Z,16.57
2022-10-02T17:32:52.268Z,16.38
2022-10-02T17:38:21.594Z,16.17
2022-10-02T17:43:31.843Z,16.19
2022-10-02T17:48:53.101Z,15.90
2022-10-02T17:54:51.470Z,16.06
2022-10-02T18:00:08.743Z,16.08
2022-10-02T18:05:35.809Z,16.28
2022-10-02T18:11:08.232Z,16.24
2022-10-02T18:16:29.915Z,15.88
2022-10-02T18:21:39.338Z,15.71
2022-10-02T18:26:53.441Z,15.63
2022-10-02T18:32:19.380Z,15.84
2022-10-02T18:37:38.095Z,15.55
2022-10-02T18:42:47.104Z,15.48
2022-10-02T18:48:09.070Z,15.34
2022-10-02T18:53:49.810Z,15.52
2022-10-02T18:59:22.318Z,15.32
2022-10-02T19:05:02.267Z,15.20
2022-10-02T19:10:30.068Z,15.13
2022-10-02T19:15:34.983Z,14.97
2022-10-02T19:20:59.168Z,14.86
2022-10-02T19:26:38.405Z,14.66
2022-10-02T19:31:42.726Z,14.72
2022-10-02T19:36:57.966Z,14.81
2022-10-02T19:42:06.557Z,14.95
2022-10-02T19:47:53.851Z,14.73
2022-10-02T19:53:09.426Z,14.67
2022-10-02T19:58:19.960Z,14.75
2022-10-02T20:03:25.905Z,14.74
2022-10-02T20:08:44.044Z,14.63
2022-10-02T20:13:59.100Z,14.57
2022-10-02T20:19:10.993Z,14.43
2022-10-02T20:24:38.695Z,14.19
2022-10-02T20:29:54.558Z,13.91
2022-10-02T20:35:22.277Z,13.72
2022-10-02T20:40:28.245Z,13.48
2022-10-02T20:45:52.401Z,13.52
2022-10-02T20:51:09.574Z,13.37
2022-10-02T20:56:49.197Z,13.11
2022-10-02T21:02:28.967Z,12.87
2022-10-02T21:08:00.120Z,12.68
2022-10-02T21:13:38.692Z,12.52
2022-10-02T21:19:33.606Z,12.34
2022-10-02T21:25:06.642Z,12.23
2022-10-02T21:30:16.208Z,12.16
2022-10-02T21:35:49.097Z,12.04
2022-10-02T21:41:10.967Z,11.96
2022-10-02T21:46:45.024Z,11.97
2022-10-02T21:52:43.893Z,11.85
2022-10-02T21:58:37.837Z,11.82
2022-10-02T22:04:20.262Z,11.72
2022-10-02T22:09:48.191Z,11.62
2022-10-02T22:14:59.269Z,11.48
2022-10-02T22:20:28.660Z,11.43
2022-10-02T22:26:08.165Z,11.32
2022-10-02T22:31:20.560Z,11.26
2022-10-02T22:36:48.477Z,11.16
2022-10-02T22:41:57.052Z,10.99
2022-10-02T22:47:05.676Z,11.05
2022-10-02T22:52:30.390Z,10.98
2022-10-02T22:57:46.258Z,11.00
2022-10-02T23:02:59.233Z,10.93
2022-10-02T23:08:19.134Z,10.85
2022-10-02T23:13:29.874Z,10.73
2022-10-02T23:18:45.983Z,10.62
2022-10-02T23:24:23.101Z,10.59
2022-10-02T23:29:49.999Z,10.48
2022-10-02T23:35:27.439Z,10.49
2022-10-02T23:41:29.593Z,10.39
2022-10-02T23:46:50.059Z,10.22
2022-10-02T23:52:08.864Z,10.38
2022-10-02T23:57:28.261Z,10.40
